sensor_id;sensor_type;location;lat;lon;timestamp;pressure;altitude;pressure_sealevel;temperature
80422;BMP280;69763;50.182;9.144;2023-09-19T00:00:31;99451.47;;;15.06
80422;BMP280;69763;50.182;9.144;2023-09-19T00:02:58;99446.34;;;15.10
80422;BMP280;69763;50.182;9.144;2023-09-19T00:05:23;99450.91;;;15.08
80422;BMP280;69763;50.182;9.144;2023-09-19T00:07:49;99455.16;;;15.01
80422;BMP280;69763;50.182;9.144;2023-09-19T00:10:15;99450.66;;;14.96
80422;BMP280;69763;50.182;9.144;2023-09-19T00:12:42;99463.72;;;14.98
80422;BMP280;69763;50.182;9.144;2023-09-19T00:15:08;99456.44;;;15.00
80422;BMP280;69763;50.182;9.144;2023-09-19T00:17:34;99456.03;;;15.04
80422;BMP280;69763;50.182;9.144;2023-09-19T00:20:01;99461.09;;;15.07
80422;BMP280;69763;50.182;9.144;2023-09-19T00:22:26;99469.03;;;15.13
80422;BMP280;69763;50.182;9.144;2023-09-19T00:24:52;99459.75;;;15.16
80422;BMP280;69763;50.182;9.144;2023-09-19T00:27:17;99474.25;;;15.18
80422;BMP280;69763;50.182;9.144;2023-09-19T00:29:42;99468.25;;;15.20
80422;BMP280;69763;50.182;9.144;2023-09-19T00:32:08;99465.03;;;15.14
80422;BMP280;69763;50.182;9.144;2023-09-19T00:34:33;99465.69;;;15.05
80422;BMP280;69763;50.182;9.144;2023-09-19T00:37:00;99465.72;;;14.97
80422;BMP280;69763;50.182;9.144;2023-09-19T00:39:25;99472.13;;;14.92
80422;BMP280;69763;50.182;9.144;2023-09-19T00:41:50;99473.66;;;14.86
80422;BMP280;69763;50.182;9.144;2023-09-19T00:44:16;99470.94;;;14.86
80422;BMP280;69763;50.182;9.144;2023-09-19T00:46:41;99470.53;;;14.89
80422;BMP280;69763;50.182;9.144;2023-09-19T00:49:07;99472.72;;;14.91
80422;BMP280;69763;50.182;9.144;2023-09-19T00:51:34;99477.22;;;14.96
80422;BMP280;69763;50.182;9.144;2023-09-19T00:54:02;99477.69;;;15.02
80422;BMP280;69763;50.182;9.144;2023-09-19T00:56:28;99478.94;;;15.08
80422;BMP280;69763;50.182;9.144;2023-09-19T00:58:53;99469.75;;;15.13
80422;BMP280;69763;50.182;9.144;2023-09-19T01:01:19;99477.41;;;15.15
80422;BMP280;69763;50.182;9.144;2023-09-19T01:03:45;99486.31;;;15.15
80422;BMP280;69763;50.182;9.144;2023-09-19T01:06:10;99485.59;;;15.15
80422;BMP280;69763;50.182;9.144;2023-09-19T01:08:35;99489.59;;;15.14
80422;BMP280;69763;50.182;9.144;2023-09-19T01:11:09;99489.44;;;15.12
80422;BMP280;69763;50.182;9.144;2023-09-19T01:13:47;99491.28;;;15.09
80422;BMP280;69763;50.182;9.144;2023-09-19T01:16:19;99495.13;;;15.06
80422;BMP280;69763;50.182;9.144;2023-09-19T01:18:55;99505.72;;;15.02
80422;BMP280;69763;50.182;9.144;2023-09-19T01:21:28;99504.66;;;14.98
80422;BMP280;69763;50.182;9.144;2023-09-19T01:24:10;99503.59;;;14.93
80422;BMP280;69763;50.182;9.144;2023-09-19T01:26:56;99501.66;;;14.86
80422;BMP280;69763;50.182;9.144;2023-09-19T01:29:36;99512.44;;;14.77
80422;BMP280;69763;50.182;9.144;2023-09-19T01:32:04;99515.94;;;14.69
80422;BMP280;69763;50.182;9.144;2023-09-19T01:34:43;99519.22;;;14.68
80422;BMP280;69763;50.182;9.144;2023-09-19T01:37:08;99519.41;;;14.70
80422;BMP280;69763;50.182;9.144;2023-09-19T01:39:34;99529.38;;;14.75
80422;BMP280;69763;50.182;9.144;2023-09-19T01:42:05;99529.72;;;14.79
80422;BMP280;69763;50.182;9.144;2023-09-19T01:44:40;99530.06;;;14.83
80422;BMP280;69763;50.182;9.144;2023-09-19T01:47:15;99538.03;;;14.89
80422;BMP280;69763;50.182;9.144;2023-09-19T01:49:48;99528.34;;;14.95
80422;BMP280;69763;50.182;9.144;2023-09-19T01:52:15;99542.50;;;15.01
80422;BMP280;69763;50.182;9.144;2023-09-19T01:54:48;99541.53;;;15.06
80422;BMP280;69763;50.182;9.144;2023-09-19T01:57:17;99545.34;;;15.11
80422;BMP280;69763;50.182;9.144;2023-09-19T01:59:48;99544.75;;;15.12
80422;BMP280;69763;50.182;9.144;2023-09-19T02:02:16;99551.09;;;15.15
80422;BMP280;69763;50.182;9.144;2023-09-19T02:04:42;99553.25;;;15.16
80422;BMP280;69763;50.182;9.144;2023-09-19T02:07:07;99551.25;;;15.17
80422;BMP280;69763;50.182;9.144;2023-09-19T02:09:33;99552.56;;;15.16
80422;BMP280;69763;50.182;9.144;2023-09-19T02:11:58;99555.84;;;15.14
80422;BMP280;69763;50.182;9.144;2023-09-19T02:14:24;99550.91;;;15.13
80422;BMP280;69763;50.182;9.144;2023-09-19T02:16:49;99556.63;;;15.07
80422;BMP280;69763;50.182;9.144;2023-09-19T02:19:16;99558.16;;;15.01
80422;BMP280;69763;50.182;9.144;2023-09-19T02:21:41;99556.50;;;14.98
80422;BMP280;69763;50.182;9.144;2023-09-19T02:24:07;99561.81;;;14.96
80422;BMP280;69763;50.182;9.144;2023-09-19T02:26:33;99568.56;;;14.95
80422;BMP280;69763;50.182;9.144;2023-09-19T02:28:59;99567.50;;;14.90
80422;BMP280;69763;50.182;9.144;2023-09-19T02:31:24;99573.69;;;14.83
80422;BMP280;69763;50.182;9.144;2023-09-19T02:33:49;99584.66;;;14.76
80422;BMP280;69763;50.182;9.144;2023-09-19T02:36:16;99585.59;;;14.70
80422;BMP280;69763;50.182;9.144;2023-09-19T02:38:42;99581.44;;;14.62
80422;BMP280;69763;50.182;9.144;2023-09-19T02:41:07;99579.34;;;14.53
80422;BMP280;69763;50.182;9.144;2023-09-19T02:43:33;99583.19;;;14.42
80422;BMP280;69763;50.182;9.144;2023-09-19T02:45:58;99590.69;;;14.34
80422;BMP280;69763;50.182;9.144;2023-09-19T02:48:24;99585.78;;;14.25
80422;BMP280;69763;50.182;9.144;2023-09-19T02:50:50;99592.53;;;14.16
80422;BMP280;69763;50.182;9.144;2023-09-19T02:53:17;99595.88;;;14.07
80422;BMP280;69763;50.182;9.144;2023-09-19T02:55:42;99601.31;;;14.00
80422;BMP280;69763;50.182;9.144;2023-09-19T02:58:08;99606.97;;;13.94
80422;BMP280;69763;50.182;9.144;2023-09-19T03:00:33;99607.53;;;13.85
80422;BMP280;69763;50.182;9.144;2023-09-19T03:02:59;99602.78;;;13.78
80422;BMP280;69763;50.182;9.144;2023-09-19T03:05:24;99609.88;;;13.73
80422;BMP280;69763;50.182;9.144;2023-09-19T03:07:50;99604.63;;;13.68
80422;BMP280;69763;50.182;9.144;2023-09-19T03:10:17;99608.97;;;13.63
80422;BMP280;69763;50.182;9.144;2023-09-19T03:12:43;99620.03;;;13.58
80422;BMP280;69763;50.182;9.144;2023-09-19T03:15:08;99616.81;;;13.52
80422;BMP280;69763;50.182;9.144;2023-09-19T03:17:34;99619.50;;;13.44
80422;BMP280;69763;50.182;9.144;2023-09-19T03:20:00;99618.22;;;13.37
80422;BMP280;69763;50.182;9.144;2023-09-19T03:22:26;99624.97;;;13.36
80422;BMP280;69763;50.182;9.144;2023-09-19T03:24:51;99622.56;;;13.33
80422;BMP280;69763;50.182;9.144;2023-09-19T03:27:18;99622.56;;;13.33
80422;BMP280;69763;50.182;9.144;2023-09-19T03:29:44;99623.66;;;13.30
80422;BMP280;69763;50.182;9.144;2023-09-19T03:32:10;99623.66;;;13.30
80422;BMP280;69763;50.182;9.144;2023-09-19T03:34:36;99628.19;;;13.27
80422;BMP280;69763;50.182;9.144;2023-09-19T03:37:01;99622.19;;;13.21
80422;BMP280;69763;50.182;9.144;2023-09-19T03:39:27;99626.72;;;13.19
80422;BMP280;69763;50.182;9.144;2023-09-19T03:41:52;99614.75;;;13.14
80422;BMP280;69763;50.182;9.144;2023-09-19T03:44:19;99612.38;;;13.11
80422;BMP280;69763;50.182;9.144;2023-09-19T03:46:44;99625.44;;;13.05
80422;BMP280;69763;50.182;9.144;2023-09-19T03:49:09;99628.31;;;12.99
80422;BMP280;69763;50.182;9.144;2023-09-19T03:51:35;99625.97;;;12.95
80422;BMP280;69763;50.182;9.144;2023-09-19T03:54:00;99628.84;;;12.90
80422;BMP280;69763;50.182;9.144;2023-09-19T03:56:26;99619.59;;;12.85
80422;BMP280;69763;50.182;9.144;2023-09-19T03:58:51;99621.16;;;12.81
80422;BMP280;69763;50.182;9.144;2023-09-19T04:01:18;99615.72;;;12.81
80422;BMP280;69763;50.182;9.144;2023-09-19T04:03:43;99627.88;;;12.80
80422;BMP280;69763;50.182;9.144;2023-09-19T04:06:08;99634.59;;;12.79
80422;BMP280;69763;50.182;9.144;2023-09-19T04:08:34;99636.19;;;12.74
80422;BMP280;69763;50.182;9.144;2023-09-19T04:10:59;99630.38;;;12.70
80422;BMP280;69763;50.182;9.144;2023-09-19T04:13:26;99634.50;;;12.64
80422;BMP280;69763;50.182;9.144;2023-09-19T04:15:51;99636.13;;;12.59
80422;BMP280;69763;50.182;9.144;2023-09-19T04:18:18;99643.19;;;12.54
80422;BMP280;69763;50.182;9.144;2023-09-19T04:20:48;99635.38;;;12.51
80422;BMP280;69763;50.182;9.144;2023-09-19T04:23:13;99640.06;;;12.50
80422;BMP280;69763;50.182;9.144;2023-09-19T04:25:40;99639.69;;;12.46
80422;BMP280;69763;50.182;9.144;2023-09-19T04:28:05;99638.06;;;12.43
80422;BMP280;69763;50.182;9.144;2023-09-19T04:30:31;99640.78;;;12.43
80422;BMP280;69763;50.182;9.144;2023-09-19T04:32:56;99653.81;;;12.45
80422;BMP280;69763;50.182;9.144;2023-09-19T04:35:23;99651.31;;;12.47
80422;BMP280;69763;50.182;9.144;2023-09-19T04:37:50;99659.47;;;12.47
80422;BMP280;69763;50.182;9.144;2023-09-19T04:40:15;99657.28;;;12.45
80422;BMP280;69763;50.182;9.144;2023-09-19T04:42:41;99650.56;;;12.46
80422;BMP280;69763;50.182;9.144;2023-09-19T04:45:07;99670.13;;;12.45
80422;BMP280;69763;50.182;9.144;2023-09-19T04:47:33;99669.06;;;12.48
80422;BMP280;69763;50.182;9.144;2023-09-19T04:49:58;99672.31;;;12.46
80422;BMP280;69763;50.182;9.144;2023-09-19T04:52:25;99673.44;;;12.51
80422;BMP280;69763;50.182;9.144;2023-09-19T04:54:50;99681.41;;;12.56
80422;BMP280;69763;50.182;9.144;2023-09-19T04:57:15;99686.69;;;12.62
80422;BMP280;69763;50.182;9.144;2023-09-19T04:59:41;99686.97;;;12.72
80422;BMP280;69763;50.182;9.144;2023-09-19T05:02:07;99682.16;;;12.85
80422;BMP280;69763;50.182;9.144;2023-09-19T05:04:32;99678.91;;;12.94
80422;BMP280;69763;50.182;9.144;2023-09-19T05:06:57;99690.00;;;13.04
80422;BMP280;69763;50.182;9.144;2023-09-19T05:09:24;99687.50;;;13.14
80422;BMP280;69763;50.182;9.144;2023-09-19T05:11:49;99690.94;;;13.22
80422;BMP280;69763;50.182;9.144;2023-09-19T05:14:15;99681.19;;;13.34
80422;BMP280;69763;50.182;9.144;2023-09-19T05:16:40;99676.31;;;13.40
80422;BMP280;69763;50.182;9.144;2023-09-19T05:19:06;99685.38;;;13.42
80422;BMP280;69763;50.182;9.144;2023-09-19T05:21:31;99690.13;;;13.42
80422;BMP280;69763;50.182;9.144;2023-09-19T05:23:56;99694.47;;;13.45
80422;BMP280;69763;50.182;9.144;2023-09-19T05:26:23;99695.41;;;13.48
80422;BMP280;69763;50.182;9.144;2023-09-19T05:28:48;99696.50;;;13.52
80422;BMP280;69763;50.182;9.144;2023-09-19T05:31:14;99702.09;;;13.54
80422;BMP280;69763;50.182;9.144;2023-09-19T05:33:39;99697.38;;;13.55
80422;BMP280;69763;50.182;9.144;2023-09-19T05:36:05;99696.66;;;13.54
80422;BMP280;69763;50.182;9.144;2023-09-19T05:38:30;99699.75;;;13.58
80422;BMP280;69763;50.182;9.144;2023-09-19T05:40:56;99700.31;;;13.64
80422;BMP280;69763;50.182;9.144;2023-09-19T05:43:22;99692.31;;;13.66
80422;BMP280;69763;50.182;9.144;2023-09-19T05:45:48;99700.09;;;13.70
80422;BMP280;69763;50.182;9.144;2023-09-19T05:48:14;99699.22;;;13.75
80422;BMP280;69763;50.182;9.144;2023-09-19T05:50:41;99692.16;;;13.79
80422;BMP280;69763;50.182;9.144;2023-09-19T05:53:06;99697.22;;;13.83
80422;BMP280;69763;50.182;9.144;2023-09-19T05:55:32;99697.06;;;13.89
80422;BMP280;69763;50.182;9.144;2023-09-19T05:57:57;99705.59;;;13.93
80422;BMP280;69763;50.182;9.144;2023-09-19T06:00:25;99706.88;;;13.99
80422;BMP280;69763;50.182;9.144;2023-09-19T06:02:51;99716.50;;;14.08
80422;BMP280;69763;50.182;9.144;2023-09-19T06:05:16;99717.19;;;14.16
80422;BMP280;69763;50.182;9.144;2023-09-19T06:07:42;99727.53;;;14.25
80422;BMP280;69763;50.182;9.144;2023-09-19T06:10:08;99726.44;;;14.36
80422;BMP280;69763;50.182;9.144;2023-09-19T06:12:33;99728.06;;;14.46
80422;BMP280;69763;50.182;9.144;2023-09-19T06:14:59;99727.69;;;14.57
80422;BMP280;69763;50.182;9.144;2023-09-19T06:17:26;99734.72;;;14.68
80422;BMP280;69763;50.182;9.144;2023-09-19T06:19:51;99733.81;;;14.81
80422;BMP280;69763;50.182;9.144;2023-09-19T06:22:16;99741.94;;;14.96
80422;BMP280;69763;50.182;9.144;2023-09-19T06:24:42;99736.78;;;15.07
80422;BMP280;69763;50.182;9.144;2023-09-19T06:27:07;99731.63;;;15.19
80422;BMP280;69763;50.182;9.144;2023-09-19T06:29:32;99747.41;;;15.28
80422;BMP280;69763;50.182;9.144;2023-09-19T06:31:58;99745.53;;;15.38
80422;BMP280;69763;50.182;9.144;2023-09-19T06:34:24;99737.31;;;15.46
80422;BMP280;69763;50.182;9.144;2023-09-19T06:36:51;99738.53;;;15.52
80422;BMP280;69763;50.182;9.144;2023-09-19T06:39:16;99746.13;;;15.61
80422;BMP280;69763;50.182;9.144;2023-09-19T06:41:42;99747.34;;;15.68
80422;BMP280;69763;50.182;9.144;2023-09-19T06:44:07;99756.56;;;15.80
80422;BMP280;69763;50.182;9.144;2023-09-19T06:46:33;99754.63;;;15.90
80422;BMP280;69763;50.182;9.144;2023-09-19T06:48:58;99766.03;;;16.04
80422;BMP280;69763;50.182;9.144;2023-09-19T06:51:25;99772.63;;;16.18
80422;BMP280;69763;50.182;9.144;2023-09-19T06:53:50;99779.88;;;16.23
80422;BMP280;69763;50.182;9.144;2023-09-19T06:56:15;99783.19;;;16.22
80422;BMP280;69763;50.182;9.144;2023-09-19T06:58:41;99776.97;;;16.21
80422;BMP280;69763;50.182;9.144;2023-09-19T07:01:06;99785.50;;;16.25
80422;BMP280;69763;50.182;9.144;2023-09-19T07:03:32;99785.06;;;16.36
80422;BMP280;69763;50.182;9.144;2023-09-19T07:05:57;99779.19;;;16.57
80422;BMP280;69763;50.182;9.144;2023-09-19T07:08:24;99783.66;;;16.79
80422;BMP280;69763;50.182;9.144;2023-09-19T07:10:49;99779.81;;;16.99
80422;BMP280;69763;50.182;9.144;2023-09-19T07:13:15;99787.97;;;17.17
80422;BMP280;69763;50.182;9.144;2023-09-19T07:15:40;99771.75;;;17.28
80422;BMP280;69763;50.182;9.144;2023-09-19T07:18:06;99796.06;;;17.41
80422;BMP280;69763;50.182;9.144;2023-09-19T07:20:32;99791.63;;;17.56
80422;BMP280;69763;50.182;9.144;2023-09-19T07:22:58;99793.59;;;17.72
80422;BMP280;69763;50.182;9.144;2023-09-19T07:25:24;99803.44;;;17.85
80422;BMP280;69763;50.182;9.144;2023-09-19T07:27:50;99811.13;;;17.96
80422;BMP280;69763;50.182;9.144;2023-09-19T07:30:15;99814.88;;;18.01
80422;BMP280;69763;50.182;9.144;2023-09-19T07:32:41;99824.13;;;18.05
80422;BMP280;69763;50.182;9.144;2023-09-19T07:35:06;99822.16;;;18.15
80422;BMP280;69763;50.182;9.144;2023-09-19T07:37:32;99829.22;;;18.28
80422;BMP280;69763;50.182;9.144;2023-09-19T07:39:57;99827.66;;;18.34
80422;BMP280;69763;50.182;9.144;2023-09-19T07:42:24;99814.66;;;18.35
80422;BMP280;69763;50.182;9.144;2023-09-19T07:44:50;99815.94;;;18.34
80422;BMP280;69763;50.182;9.144;2023-09-19T07:47:15;99829.22;;;18.37
80422;BMP280;69763;50.182;9.144;2023-09-19T07:49:40;99826.69;;;18.49
80422;BMP280;69763;50.182;9.144;2023-09-19T07:52:06;99831.44;;;18.58
80422;BMP280;69763;50.182;9.144;2023-09-19T07:54:31;99830.28;;;18.71
80422;BMP280;69763;50.182;9.144;2023-09-19T07:56:56;99830.69;;;18.77
80422;BMP280;69763;50.182;9.144;2023-09-19T07:59:23;99833.59;;;18.79
80422;BMP280;69763;50.182;9.144;2023-09-19T08:01:49;99834.88;;;18.87
80422;BMP280;69763;50.182;9.144;2023-09-19T08:04:14;99829.56;;;18.89
80422;BMP280;69763;50.182;9.144;2023-09-19T08:06:39;99833.75;;;18.71
80422;BMP280;69763;50.182;9.144;2023-09-19T08:09:05;99843.72;;;18.76
80422;BMP280;69763;50.182;9.144;2023-09-19T08:11:30;99839.66;;;18.87
80422;BMP280;69763;50.182;9.144;2023-09-19T08:13:56;99838.78;;;18.94
80422;BMP280;69763;50.182;9.144;2023-09-19T08:16:23;99851.22;;;19.14
80422;BMP280;69763;50.182;9.144;2023-09-19T08:18:50;99852.34;;;19.21
80422;BMP280;69763;50.182;9.144;2023-09-19T08:21:15;99853.34;;;19.25
80422;BMP280;69763;50.182;9.144;2023-09-19T08:23:41;99850.56;;;19.35
80422;BMP280;69763;50.182;9.144;2023-09-19T08:26:06;99842.72;;;19.51
80422;BMP280;69763;50.182;9.144;2023-09-19T08:28:32;99842.50;;;19.68
80422;BMP280;69763;50.182;9.144;2023-09-19T08:31:01;99844.38;;;19.75
80422;BMP280;69763;50.182;9.144;2023-09-19T08:33:28;99840.69;;;19.82
80422;BMP280;69763;50.182;9.144;2023-09-19T08:35:55;99852.63;;;19.75
80422;BMP280;69763;50.182;9.144;2023-09-19T08:38:20;99855.91;;;19.83
80422;BMP280;69763;50.182;9.144;2023-09-19T08:40:46;99861.94;;;19.91
80422;BMP280;69763;50.182;9.144;2023-09-19T08:43:11;99872.41;;;19.83
80422;BMP280;69763;50.182;9.144;2023-09-19T08:45:37;99864.84;;;19.83
80422;BMP280;69763;50.182;9.144;2023-09-19T08:48:12;99878.28;;;19.89
80422;BMP280;69763;50.182;9.144;2023-09-19T08:50:49;99875.38;;;19.97
80422;BMP280;69763;50.182;9.144;2023-09-19T08:53:21;99882.31;;;19.98
80422;BMP280;69763;50.182;9.144;2023-09-19T08:55:51;99869.75;;;19.95
80422;BMP280;69763;50.182;9.144;2023-09-19T08:58:19;99884.88;;;20.05
80422;BMP280;69763;50.182;9.144;2023-09-19T09:00:44;99872.53;;;20.16
80422;BMP280;69763;50.182;9.144;2023-09-19T09:03:11;99875.75;;;20.33
80422;BMP280;69763;50.182;9.144;2023-09-19T09:05:41;99873.09;;;20.35
80422;BMP280;69763;50.182;9.144;2023-09-19T09:08:10;99874.28;;;20.32
80422;BMP280;69763;50.182;9.144;2023-09-19T09:10:35;99876.13;;;20.39
80422;BMP280;69763;50.182;9.144;2023-09-19T09:13:01;99876.66;;;20.48
80422;BMP280;69763;50.182;9.144;2023-09-19T09:15:27;99873.44;;;20.51
80422;BMP280;69763;50.182;9.144;2023-09-19T09:17:54;99881.50;;;20.59
80422;BMP280;69763;50.182;9.144;2023-09-19T09:20:19;99866.41;;;20.81
80422;BMP280;69763;50.182;9.144;2023-09-19T09:22:51;99864.59;;;20.85
80422;BMP280;69763;50.182;9.144;2023-09-19T09:25:18;99858.63;;;20.89
80422;BMP280;69763;50.182;9.144;2023-09-19T09:27:45;99862.41;;;21.05
80422;BMP280;69763;50.182;9.144;2023-09-19T09:30:32;99861.47;;;21.24
80422;BMP280;69763;50.182;9.144;2023-09-19T09:33:08;99862.66;;;21.21
80422;BMP280;69763;50.182;9.144;2023-09-19T09:35:34;99866.56;;;21.06
80422;BMP280;69763;50.182;9.144;2023-09-19T09:37:59;99868.59;;;20.94
80422;BMP280;69763;50.182;9.144;2023-09-19T09:40:45;99869.47;;;21.08
80422;BMP280;69763;50.182;9.144;2023-09-19T09:43:25;99870.69;;;21.28
80422;BMP280;69763;50.182;9.144;2023-09-19T09:46:06;99871.06;;;21.34
80422;BMP280;69763;50.182;9.144;2023-09-19T09:48:32;99872.88;;;21.42
80422;BMP280;69763;50.182;9.144;2023-09-19T09:50:57;99869.50;;;21.55
80422;BMP280;69763;50.182;9.144;2023-09-19T09:53:23;99873.34;;;21.61
80422;BMP280;69763;50.182;9.144;2023-09-19T09:56:01;99882.25;;;21.71
80422;BMP280;69763;50.182;9.144;2023-09-19T09:58:27;99879.84;;;21.66
80422;BMP280;69763;50.182;9.144;2023-09-19T10:00:53;99874.44;;;21.45
80422;BMP280;69763;50.182;9.144;2023-09-19T10:03:19;99894.41;;;21.22
80422;BMP280;69763;50.182;9.144;2023-09-19T10:05:45;99880.59;;;21.10
80422;BMP280;69763;50.182;9.144;2023-09-19T10:08:11;99884.22;;;21.13
80422;BMP280;69763;50.182;9.144;2023-09-19T10:10:38;99884.47;;;21.28
80422;BMP280;69763;50.182;9.144;2023-09-19T10:13:06;99887.00;;;21.48
80422;BMP280;69763;50.182;9.144;2023-09-19T10:15:32;99891.22;;;21.72
80422;BMP280;69763;50.182;9.144;2023-09-19T10:18:00;99884.41;;;21.84
80422;BMP280;69763;50.182;9.144;2023-09-19T10:20:28;99888.22;;;21.91
80422;BMP280;69763;50.182;9.144;2023-09-19T10:22:54;99889.75;;;22.17
80422;BMP280;69763;50.182;9.144;2023-09-19T10:25:20;99893.09;;;22.16
80422;BMP280;69763;50.182;9.144;2023-09-19T10:27:45;99885.78;;;21.97
80422;BMP280;69763;50.182;9.144;2023-09-19T10:30:12;99886.75;;;21.90
80422;BMP280;69763;50.182;9.144;2023-09-19T10:32:39;99890.25;;;21.90
80422;BMP280;69763;50.182;9.144;2023-09-19T10:35:06;99887.47;;;22.02
80422;BMP280;69763;50.182;9.144;2023-09-19T10:37:32;99890.47;;;21.95
80422;BMP280;69763;50.182;9.144;2023-09-19T10:39:59;99895.34;;;21.82
80422;BMP280;69763;50.182;9.144;2023-09-19T10:42:25;99892.09;;;21.74
80422;BMP280;69763;50.182;9.144;2023-09-19T10:44:52;99894.22;;;21.76
80422;BMP280;69763;50.182;9.144;2023-09-19T10:47:19;99885.72;;;21.60
80422;BMP280;69763;50.182;9.144;2023-09-19T10:49:45;99889.28;;;21.51
80422;BMP280;69763;50.182;9.144;2023-09-19T10:52:10;99890.97;;;21.45
80422;BMP280;69763;50.182;9.144;2023-09-19T10:54:36;99881.88;;;21.42
80422;BMP280;69763;50.182;9.144;2023-09-19T10:57:02;99895.75;;;21.44
80422;BMP280;69763;50.182;9.144;2023-09-19T10:59:28;99890.03;;;21.52
80422;BMP280;69763;50.182;9.144;2023-09-19T11:01:55;99887.41;;;21.77
80422;BMP280;69763;50.182;9.144;2023-09-19T11:04:24;99890.72;;;21.99
80422;BMP280;69763;50.182;9.144;2023-09-19T11:06:59;99890.09;;;22.12
80422;BMP280;69763;50.182;9.144;2023-09-19T11:09:42;99888.06;;;22.24
80422;BMP280;69763;50.182;9.144;2023-09-19T11:12:08;99895.53;;;22.10
80422;BMP280;69763;50.182;9.144;2023-09-19T11:14:41;99885.69;;;22.07
80422;BMP280;69763;50.182;9.144;2023-09-19T11:17:33;99886.50;;;22.09
80422;BMP280;69763;50.182;9.144;2023-09-19T11:20:22;99888.63;;;22.34
80422;BMP280;69763;50.182;9.144;2023-09-19T11:23:18;99878.81;;;22.56
80422;BMP280;69763;50.182;9.144;2023-09-19T11:25:43;99866.28;;;22.67
80422;BMP280;69763;50.182;9.144;2023-09-19T11:28:31;99865.50;;;22.53
80422;BMP280;69763;50.182;9.144;2023-09-19T11:30:56;99864.50;;;22.34
80422;BMP280;69763;50.182;9.144;2023-09-19T11:33:23;99867.66;;;22.17
80422;BMP280;69763;50.182;9.144;2023-09-19T11:36:08;99872.38;;;21.91
80422;BMP280;69763;50.182;9.144;2023-09-19T11:38:58;99864.69;;;21.90
80422;BMP280;69763;50.182;9.144;2023-09-19T11:41:39;99852.81;;;21.99
80422;BMP280;69763;50.182;9.144;2023-09-19T11:44:33;99871.84;;;22.18
80422;BMP280;69763;50.182;9.144;2023-09-19T11:47:00;99862.22;;;22.31
80422;BMP280;69763;50.182;9.144;2023-09-19T11:49:28;99861.50;;;22.30
80422;BMP280;69763;50.182;9.144;2023-09-19T11:51:55;99866.13;;;22.03
80422;BMP280;69763;50.182;9.144;2023-09-19T11:54:21;99865.91;;;21.75
80422;BMP280;69763;50.182;9.144;2023-09-19T11:56:48;99865.44;;;21.56
80422;BMP280;69763;50.182;9.144;2023-09-19T11:59:19;99861.25;;;21.55
80422;BMP280;69763;50.182;9.144;2023-09-19T12:01:51;99861.13;;;21.53
80422;BMP280;69763;50.182;9.144;2023-09-19T12:04:18;99852.13;;;21.40
80422;BMP280;69763;50.182;9.144;2023-09-19T12:06:57;99861.50;;;21.70
80422;BMP280;69763;50.182;9.144;2023-09-19T12:09:23;99847.97;;;22.11
80422;BMP280;69763;50.182;9.144;2023-09-19T12:11:49;99843.53;;;22.43
80422;BMP280;69763;50.182;9.144;2023-09-19T12:14:22;99849.31;;;22.72
80422;BMP280;69763;50.182;9.144;2023-09-19T12:16:52;99854.41;;;23.03
80422;BMP280;69763;50.182;9.144;2023-09-19T12:19:19;99857.44;;;22.95
80422;BMP280;69763;50.182;9.144;2023-09-19T12:21:44;99854.13;;;22.72
80422;BMP280;69763;50.182;9.144;2023-09-19T12:24:19;99859.06;;;22.36
80422;BMP280;69763;50.182;9.144;2023-09-19T12:26:46;99852.31;;;22.39
80422;BMP280;69763;50.182;9.144;2023-09-19T12:29:19;99843.19;;;22.49
80422;BMP280;69763;50.182;9.144;2023-09-19T12:31:48;99845.94;;;22.49
80422;BMP280;69763;50.182;9.144;2023-09-19T12:34:16;99841.84;;;22.50
80422;BMP280;69763;50.182;9.144;2023-09-19T12:36:41;99840.53;;;22.14
80422;BMP280;69763;50.182;9.144;2023-09-19T12:39:07;99854.06;;;21.84
80422;BMP280;69763;50.182;9.144;2023-09-19T12:41:34;99845.84;;;21.98
80422;BMP280;69763;50.182;9.144;2023-09-19T12:43:59;99851.94;;;22.08
80422;BMP280;69763;50.182;9.144;2023-09-19T12:46:25;99840.31;;;22.10
80422;BMP280;69763;50.182;9.144;2023-09-19T12:49:14;99834.78;;;22.10
80422;BMP280;69763;50.182;9.144;2023-09-19T12:51:40;99816.00;;;22.31
80422;BMP280;69763;50.182;9.144;2023-09-19T12:54:05;99824.16;;;22.55
80422;BMP280;69763;50.182;9.144;2023-09-19T12:56:40;99821.91;;;22.51
80422;BMP280;69763;50.182;9.144;2023-09-19T12:59:06;99815.72;;;22.39
80422;BMP280;69763;50.182;9.144;2023-09-19T13:01:31;99814.72;;;22.21
80422;BMP280;69763;50.182;9.144;2023-09-19T13:04:13;99815.13;;;22.04
80422;BMP280;69763;50.182;9.144;2023-09-19T13:06:39;99817.47;;;21.84
80422;BMP280;69763;50.182;9.144;2023-09-19T13:09:08;99817.94;;;21.69
80422;BMP280;69763;50.182;9.144;2023-09-19T13:11:36;99813.97;;;21.72
80422;BMP280;69763;50.182;9.144;2023-09-19T13:14:16;99817.28;;;21.93
80422;BMP280;69763;50.182;9.144;2023-09-19T13:16:53;99817.63;;;22.11
80422;BMP280;69763;50.182;9.144;2023-09-19T13:19:34;99807.19;;;22.10
80422;BMP280;69763;50.182;9.144;2023-09-19T13:22:00;99802.41;;;21.99
80422;BMP280;69763;50.182;9.144;2023-09-19T13:24:25;99802.84;;;21.81
80422;BMP280;69763;50.182;9.144;2023-09-19T13:26:51;99796.13;;;21.84
80422;BMP280;69763;50.182;9.144;2023-09-19T13:29:18;99807.22;;;21.86
80422;BMP280;69763;50.182;9.144;2023-09-19T13:31:46;99806.19;;;21.80
80422;BMP280;69763;50.182;9.144;2023-09-19T13:34:11;99812.69;;;21.73
80422;BMP280;69763;50.182;9.144;2023-09-19T13:36:36;99809.19;;;21.72
80422;BMP280;69763;50.182;9.144;2023-09-19T13:39:02;99802.00;;;21.79
80422;BMP280;69763;50.182;9.144;2023-09-19T13:41:28;99805.69;;;21.83
80422;BMP280;69763;50.182;9.144;2023-09-19T13:43:53;99806.63;;;22.00
80422;BMP280;69763;50.182;9.144;2023-09-19T13:46:20;99806.84;;;22.04
80422;BMP280;69763;50.182;9.144;2023-09-19T13:48:45;99808.75;;;22.01
80422;BMP280;69763;50.182;9.144;2023-09-19T13:51:11;99811.19;;;21.95
80422;BMP280;69763;50.182;9.144;2023-09-19T13:53:36;99801.84;;;21.88
80422;BMP280;69763;50.182;9.144;2023-09-19T13:56:01;99805.75;;;21.97
80422;BMP280;69763;50.182;9.144;2023-09-19T13:58:27;99797.00;;;22.01
80422;BMP280;69763;50.182;9.144;2023-09-19T14:00:52;99799.66;;;21.99
80422;BMP280;69763;50.182;9.144;2023-09-19T14:03:19;99791.75;;;21.93
80422;BMP280;69763;50.182;9.144;2023-09-19T14:05:45;99789.88;;;21.72
80422;BMP280;69763;50.182;9.144;2023-09-19T14:08:11;99793.84;;;21.58
80422;BMP280;69763;50.182;9.144;2023-09-19T14:10:36;99797.31;;;21.47